Time;durP1;ratioP1;P1;durP2;ratioP2;P2;SDS_P1;SDS_P2;PMS_P1;PMS_P2;Temp;Humidity;BMP_temperature;BMP_pressure;BME280_temperature;BME280_humidity;BME280_pressure;Samples;Min_cycle;Max_cycle;Signal;HPM_P1;HPM_P2
2023/06/22 07:01:22;;;;;;;0.75;0.75;;;23.00;99.90;27.50;101561.00;;;;6189049;22;2096033;-64
2023/06/22 07:03:51;;;;;;;0.40;0.40;;;23.40;99.90;28.00;101558.00;;;;6278216;22;20168;-64
2023/06/22 07:06:22;;;;;;;3.45;1.77;;;23.90;99.90;25.20;101531.00;;;;6251765;22;20149;-63
2023/06/22 07:08:53;;;;;;;0.10;0.10;;;23.20;99.90;25.70;101541.00;;;;6225806;22;20218;-63
2023/06/22 07:11:21;;;;;;;2.08;1.98;;;23.00;99.90;25.60;101507.00;;;;6278251;22;20151;-63
2023/06/22 07:13:53;;;;;;;0.32;0.32;;;22.90;99.90;26.70;101535.00;;;;6278380;22;20184;-63
2023/06/22 07:16:25;;;;;;;0.73;0.73;;;23.00;99.90;26.10;101544.00;;;;6278710;22;20466;-63
2023/06/22 07:18:50;;;;;;;1.23;1.17;;;23.30;99.90;26.10;101534.00;;;;6278463;22;20148;-63
2023/06/22 07:21:16;;;;;;;0.13;0.13;;;23.40;99.90;26.20;101526.00;;;;6278213;22;20502;-63
2023/06/22 07:23:42;;;;;;;5.18;4.47;;;23.40;99.90;26.00;101490.00;;;;6277646;22;20161;-63
2023/06/22 07:26:17;;;;;;;0.13;0.13;;;23.30;99.90;26.80;101530.00;;;;6251401;22;20494;-63
2023/06/22 07:28:47;;;;;;;2.17;2.03;;;23.40;99.90;26.80;101519.00;;;;6277937;22;20141;-63
2023/06/22 07:31:16;;;;;;;0.95;0.95;;;23.60;99.90;26.60;101508.00;;;;6278066;22;20157;-63
2023/06/22 07:33:44;;;;;;;1.95;1.85;;;23.60;99.90;25.80;101502.00;;;;6278300;22;20145;-63
2023/06/22 07:36:13;;;;;;;0.30;0.30;;;23.30;99.90;25.50;101468.00;;;;6278554;22;20141;-63
2023/06/22 07:38:41;;;;;;;4.55;3.30;;;22.90;99.90;25.40;101502.00;;;;6277928;22;20210;-63
2023/06/22 07:41:13;;;;;;;3.50;2.13;;;22.90;99.90;25.20;101510.00;;;;6251478;22;20141;-63
2023/06/22 07:43:45;;;;;;;0.10;0.10;;;22.90;99.90;26.30;101493.00;;;;6277865;22;20174;-63
2023/06/22 07:46:13;;;;;;;0.80;0.75;;;22.90;99.90;25.60;101493.00;;;;6225948;22;20577;-63
2023/06/22 07:48:41;;;;;;;1.77;1.67;;;23.00;99.90;25.50;101482.00;;;;6250755;22;20584;-63
2023/06/22 07:51:13;;;;;;;5.85;3.83;;;23.00;99.90;25.00;101496.00;;;;6250692;22;20164;-63
2023/06/22 07:53:44;;;;;;;2.45;2.30;;;22.90;99.90;25.50;101472.00;;;;6251859;22;20142;-63
2023/06/22 07:56:18;;;;;;;3.28;3.08;;;22.90;99.90;25.50;101496.00;;;;6251181;22;20171;-63
2023/06/22 07:58:46;;;;;;;2.08;1.98;;;23.00;99.90;24.90;101498.00;;;;6277911;22;20145;-63
2023/06/22 08:01:13;;;;;;;0.17;0.17;;;22.80;99.90;26.40;101514.00;;;;6278296;22;20196;-63
2023/06/22 08:03:39;;;;;;;1.92;0.57;;;23.00;99.90;25.50;101496.00;;;;6250930;22;20165;-63
2023/06/22 08:06:08;;;;;;;0.35;0.35;;;23.10;99.90;26.60;101512.00;;;;6277330;22;20185;-63
2023/06/22 08:08:34;;;;;;;3.03;2.83;;;23.40;99.90;25.60;101491.00;;;;6251260;22;20164;-63
2023/06/22 08:11:05;;;;;;;0.10;0.10;;;23.30;99.90;26.70;101508.00;;;;6277917;22;20565;-63
2023/06/22 08:13:40;;;;;;;10.63;6.10;;;23.40;99.90;25.50;101501.00;;;;6278026;22;20151;-63
2023/06/22 08:16:07;;;;;;;0.60;0.60;;;23.30;99.90;26.20;101497.00;;;;6277646;22;20148;-63
2023/06/22 08:18:40;;;;;;;1.20;0.82;;;23.40;99.90;26.60;101502.00;;;;6277701;22;20208;-63
2023/06/22 08:21:11;;;;;;;0.95;0.95;;;23.60;99.90;26.00;101486.00;;;;6277632;22;20143;-63
2023/06/22 08:23:40;;;;;;;3.25;3.05;;;23.40;99.90;26.30;101487.00;;;;6277777;22;20487;-63
2023/06/22 08:26:08;;;;;;;1.23;1.23;;;23.30;99.90;26.50;101489.00;;;;6250609;22;20160;-63
2023/06/22 08:28:41;;;;;;;3.92;3.50;;;23.30;99.90;25.90;101485.00;;;;6277742;22;20175;-63
2023/06/22 08:31:13;;;;;;;3.00;1.35;;;23.40;99.90;25.50;101481.00;;;;6225335;22;20596;-63
2023/06/22 08:33:40;;;;;;;2.05;1.83;;;23.10;99.90;26.20;101465.00;;;;6277351;22;20588;-63
2023/06/22 08:36:10;;;;;;;0.60;0.60;;;23.10;99.90;26.10;101495.00;;;;6250164;22;20574;-63
2023/06/22 08:38:36;;;;;;;2.47;2.28;;;23.20;99.90;26.10;101491.00;;;;6277626;22;20214;-63
2023/06/22 08:41:02;;;;;;;0.30;0.30;;;23.20;99.90;26.20;101495.00;;;;6250552;22;20575;-63
2023/06/22 08:43:28;;;;;;;0.52;0.43;;;23.30;99.90;26.60;101469.00;;;;6250371;22;20187;-63
2023/06/22 08:45:56;;;;;;;1.63;1.50;;;23.30;99.90;26.10;101488.00;;;;6277545;22;20154;-63
2023/06/22 08:48:25;;;;;;;1.95;1.33;;;23.30;99.90;25.50;101463.00;;;;6250626;22;20223;-63
2023/06/22 08:50:51;;;;;;;0.50;0.47;;;23.10;99.90;26.50;101485.00;;;;6250210;22;20493;-63
2023/06/22 08:53:19;;;;;;;0.95;0.95;;;23.20;99.90;25.90;101483.00;;;;6277374;22;20142;-63
2023/06/22 08:55:50;;;;;;;0.20;0.20;;;23.20;99.90;25.60;101467.00;;;;6276014;22;20161;-63
2023/06/22 08:58:24;;;;;;;2.50;2.30;;;22.90;99.90;25.80;101487.00;;;;6277554;22;20138;-63
2023/06/22 09:00:52;;;;;;;2.40;2.20;;;23.00;99.90;25.50;101483.00;;;;6250002;22;20206;-63
2023/06/22 09:03:26;;;;;;;2.13;1.65;;;22.90;99.90;26.10;101488.00;;;;6250159;22;20605;-63
2023/06/22 09:05:52;;;;;;;2.75;2.47;;;23.10;99.90;25.20;101483.00;;;;6250137;22;20153;-63
2023/06/22 09:08:20;;;;;;;0.50;0.50;;;22.90;99.90;24.90;101479.00;;;;6250530;22;20175;-63
2023/06/22 09:10:48;;;;;;;0.85;0.85;;;22.50;99.90;25.30;101479.00;;;;6277110;22;20512;-63
2023/06/22 09:13:20;;;;;;;2.95;2.63;;;22.50;99.90;24.70;101475.00;;;;6277060;22;20515;-63
2023/06/22 09:15:48;;;;;;;0.85;0.85;;;22.40;99.90;25.40;101491.00;;;;6276642;22;20221;-63
2023/06/22 09:18:14;;;;;;;2.08;0.82;;;22.60;99.90;25.30;101486.00;;;;6276953;22;20146;-63
2023/06/22 09:20:40;;;;;;;2.00;1.17;;;22.50;99.90;25.20;101463.00;;;;6250061;22;20202;-63
2023/06/22 09:23:09;;;;;;;0.15;0.15;;;22.50;99.90;26.40;101498.00;;;;6224368;22;20184;-63
2023/06/22 09:25:35;;;;;;;0.10;0.10;;;22.80;99.90;26.20;101464.00;;;;6277261;22;20219;-63
2023/06/22 09:28:01;;;;;;;1.30;1.23;;;23.00;99.90;26.00;101500.00;;;;6277052;22;20145;-63
2023/06/22 09:30:32;;;;;;;1.27;1.17;;;23.00;99.90;26.40;101502.00;;;;6276936;22;20157;-63
2023/06/22 09:32:59;;;;;;;0.10;0.10;;;23.10;99.90;27.80;101512.00;;;;6249383;22;20488;-63
2023/06/22 09:35:27;;;;;;;0.32;0.32;;;23.60;99.90;27.50;101509.00;;;;6277538;22;20137;-63
2023/06/22 09:37:53;;;;;;;2.08;0.63;;;23.70;99.90;27.80;101523.00;;;;6249431;22;20611;-64
2023/06/22 09:40:22;;;;;;;0.20;0.20;;;24.00;99.90;27.40;101521.00;;;;6276845;22;20145;-63
2023/06/22 09:42:48;;;;;;;0.20;0.20;;;24.00;99.90;28.40;101524.00;;;;6276528;22;20616;-64
2023/06/22 09:45:14;;;;;;;1.10;1.10;;;24.30;99.90;28.30;101545.00;;;;6276797;22;20173;-63
2023/06/22 09:47:40;;;;;;;0.65;0.65;;;24.40;99.90;28.40;101547.00;;;;6276169;22;20145;-63
2023/06/22 09:50:14;;;;;;;0.50;0.50;;;24.50;99.90;27.10;101531.00;;;;6250154;22;20188;-63
2023/06/22 09:52:44;;;;;;;0.57;0.57;;;24.10;99.90;27.40;101520.00;;;;6276630;22;20147;-63
2023/06/22 09:55:15;;;;;;;0.93;0.93;;;23.90;99.90;28.00;101535.00;;;;6276979;22;20222;-63
2023/06/22 09:57:49;;;;;;;0.47;0.47;;;24.10;99.90;27.50;101529.00;;;;6276545;22;20145;-63
2023/06/22 10:00:19;;;;;;;0.40;0.40;;;24.00;99.90;27.50;101538.00;;;;6249409;22;20600;-63
2023/06/22 10:02:50;;;;;;;0.45;0.45;;;23.90;99.90;26.60;101530.00;;;;6249354;22;20215;-64
2023/06/22 10:05:19;;;;;;;0.10;0.10;;;23.80;99.90;27.40;101545.00;;;;6250096;22;20460;-63
2023/06/22 10:07:47;;;;;;;0.50;0.50;;;23.60;99.90;27.50;101547.00;;;;6276227;22;20486;-63
2023/06/22 10:10:16;;;;;;;0.10;0.10;;;23.70;99.90;27.80;101552.00;;;;6277088;22;20145;-64
2023/06/22 10:12:54;;;;;;;1.33;1.33;;;23.80;99.90;27.80;101561.00;;;;6276780;22;20145;-63
2023/06/22 10:15:21;;;;;;;0.10;0.10;;;23.90;99.90;26.30;101548.00;;;;6276624;22;20141;-63
2023/06/22 10:17:47;;;;;;;0.10;0.10;;;23.50;99.90;25.90;101519.00;;;;6249389;22;20144;-63
2023/06/22 10:20:20;;;;;;;1.95;1.85;;;23.10;99.90;26.40;101555.00;;;;6224543;22;20160;-63
2023/06/22 10:33:25;;;;;;;0.30;0.30;;;21.50;99.90;24.70;101502.00;;;;5070068;28;20540;-64
2023/06/22 10:35:53;;;;;;;0.10;0.10;;;21.70;99.90;25.00;101482.00;;;;5050250;28;20265;-64
2023/06/22 10:38:21;;;;;;;0.10;0.10;;;21.90;99.90;25.90;101521.00;;;;5050098;28;20264;-62
2023/06/22 10:40:50;;;;;;;0.10;0.10;;;22.30;99.90;25.70;101519.00;;;;5048883;28;20245;-62
2023/06/22 10:43:21;;;;;;;0.10;0.10;;;22.30;99.90;25.50;101532.00;;;;5050548;28;20285;-62
2023/06/22 10:45:47;;;;;;;0.10;0.10;;;22.50;99.90;26.10;101524.00;;;;5048745;28;20186;-62
2023/06/22 10:48:16;;;;;;;0.10;0.10;;;22.50;99.90;26.60;101531.00;;;;5048741;28;20240;-62
2023/06/22 10:50:42;;;;;;;0.50;0.50;;;22.60;99.90;26.60;101528.00;;;;5050664;28;20185;-62
2023/06/22 10:53:08;;;;;;;0.35;0.35;;;22.80;99.90;26.50;101534.00;;;;5050011;28;20552;-62
2023/06/22 10:55:36;;;;;;;0.10;0.10;;;22.70;99.90;27.00;101536.00;;;;5050312;28;20201;-62
2023/06/22 10:58:05;;;;;;;0.10;0.10;;;22.80;99.90;26.30;101532.00;;;;5046317;28;20224;-65
2023/06/22 11:00:33;;;;;;;0.10;0.10;;;22.60;99.90;26.20;101531.00;;;;5048412;28;20304;-62
2023/06/22 11:03:03;;;;;;;0.70;0.68;;;22.60;99.90;26.50;101524.00;;;;5049645;28;20194;-62
2023/06/22 11:05:34;;;;;;;0.32;0.32;;;22.60;99.90;26.40;101527.00;;;;5049515;28;20194;-62
2023/06/22 11:08:05;;;;;;;0.15;0.15;;;22.40;99.90;25.90;101508.00;;;;5047656;28;20245;-62
2023/06/22 11:10:35;;;;;;;0.20;0.20;;;22.30;99.90;26.30;101519.00;;;;5048344;28;20185;-62
2023/06/22 11:13:05;;;;;;;0.55;0.55;;;22.30;99.90;26.00;101508.00;;;;5043670;28;20198;-62
2023/06/22 11:15:36;;;;;;;0.65;0.65;;;22.30;99.90;25.50;101504.00;;;;5049212;28;20656;-62
2023/06/22 11:18:02;;;;;;;0.50;0.50;;;22.20;99.90;25.70;101491.00;;;;5049837;28;20228;-62
2023/06/22 11:20:30;;;;;;;0.40;0.40;;;22.10;99.90;24.20;101462.00;;;;5049491;28;20197;-62
2023/06/22 11:22:58;;;;;;;5.15;3.28;;;21.60;99.90;22.40;101446.00;;;;5049552;28;20206;-64
2023/06/22 11:25:27;;;;;;;1.38;1.33;;;20.90;99.90;22.40;101433.00;;;;5047868;28;20198;-64
2023/06/22 11:28:00;;;;;;;0.77;0.75;;;20.40;99.90;22.70;101433.00;;;;5048334;28;20190;-64
2023/06/22 11:30:29;;;;;;;2.60;1.73;;;20.30;99.90;22.00;101427.00;;;;5047914;28;20186;-64
2023/06/22 11:32:57;;;;;;;4.28;3.80;;;20.10;99.90;22.00;101431.00;;;;5047964;28;20639;-64
2023/06/22 11:35:26;;;;;;;1.75;1.25;;;20.00;99.90;22.60;101415.00;;;;5040726;28;20573;-64
2023/06/22 11:37:59;;;;;;;5.03;4.60;;;20.20;99.90;22.40;101396.00;;;;5049410;28;20189;-64
2023/06/22 11:40:30;;;;;;;0.40;0.40;;;20.00;99.90;23.50;101396.00;;;;5049490;28;20272;-64
2023/06/22 11:43:04;;;;;;;0.80;0.80;;;20.30;99.90;24.30;101365.00;;;;5044751;28;20191;-64
2023/06/22 11:45:37;;;;;;;0.52;0.52;;;20.80;99.90;22.80;101375.00;;;;5035615;28;20649;-64
2023/06/22 11:48:05;;;;;;;1.65;1.55;;;20.40;99.90;22.30;101373.00;;;;5035686;28;20183;-64
2023/06/22 11:50:36;;;;;;;0.47;0.47;;;20.20;99.90;22.80;101375.00;;;;5035731;28;20175;-64
2023/06/22 11:53:06;;;;;;;2.08;1.98;;;20.20;99.90;22.60;101364.00;;;;5026179;28;20210;-64
2023/06/22 11:55:37;;;;;;;0.80;0.80;;;20.20;99.90;22.50;101356.00;;;;5035800;28;20265;-64
2023/06/22 11:58:06;;;;;;;0.82;0.82;;;20.20;99.90;22.90;101363.00;;;;5033993;28;20194;-64
2023/06/22 12:00:34;;;;;;;1.10;1.05;;;20.10;99.90;23.70;101345.00;;;;5034234;28;20201;-64
2023/06/22 12:03:03;;;;;;;0.65;0.65;;;20.40;99.90;24.30;101349.00;;;;5035555;28;20274;-64
2023/06/22 12:05:34;;;;;;;1.73;1.63;;;20.90;99.90;22.60;101333.00;;;;5034031;28;20653;-64
2023/06/22 12:08:00;;;;;;;1.25;1.25;;;20.40;99.90;22.80;101335.00;;;;5035346;28;20193;-64
2023/06/22 12:10:28;;;;;;;2.90;1.90;;;20.30;99.90;22.40;101342.00;;;;5034211;28;20189;-64
2023/06/22 12:12:58;;;;;;;0.75;0.75;;;20.10;99.90;23.10;101343.00;;;;5034094;28;20203;-64
2023/06/22 12:15:27;;;;;;;0.73;0.73;;;20.30;99.90;23.30;101344.00;;;;5034809;28;20201;-64
2023/06/22 12:17:55;;;;;;;0.57;0.55;;;20.20;99.90;23.30;101342.00;;;;5034142;28;20186;-64
2023/06/22 12:20:23;;;;;;;0.47;0.47;;;20.20;99.90;23.80;101339.00;;;;5035305;28;20197;-64
2023/06/22 12:22:52;;;;;;;8.15;2.20;;;20.50;99.90;24.60;101351.00;;;;5035004;28;20553;-64
2023/06/22 12:25:22;;;;;;;0.38;0.38;;;20.80;99.90;24.70;101351.00;;;;5035307;28;20187;-64
2023/06/22 12:27:47;;;;;;;1.40;1.23;;;21.00;99.90;25.10;101364.00;;;;5034513;28;20193;-64
2023/06/22 12:30:17;;;;;;;1.02;1.02;;;21.40;99.90;25.00;101369.00;;;;5034553;28;20619;-64
2023/06/22 12:32:45;;;;;;;0.35;0.35;;;21.40;99.90;24.90;101371.00;;;;5033747;28;20602;-64
2023/06/22 12:35:13;;;;;;;0.50;0.50;;;21.40;99.90;24.80;101367.00;;;;5034836;28;20203;-64
2023/06/22 12:37:43;;;;;;;4.18;3.58;;;21.40;99.90;24.60;101347.00;;;;5033669;28;20225;-64
2023/06/22 12:40:13;;;;;;;1.50;1.42;;;21.40;99.90;25.20;101386.00;;;;5033678;28;20198;-64
2023/06/22 12:42:45;;;;;;;1.55;1.45;;;21.50;99.90;25.30;101376.00;;;;5033205;28;20201;-64
2023/06/22 12:45:13;;;;;;;2.00;1.88;;;21.70;99.90;24.60;101382.00;;;;5031770;28;20559;-64
2023/06/22 12:47:44;;;;;;;2.58;2.47;;;21.70;99.90;25.10;101377.00;;;;5022425;28;20641;-64
2023/06/22 12:50:13;;;;;;;0.43;0.43;;;21.60;99.90;25.70;101381.00;;;;5033328;28;20216;-62
2023/06/22 12:52:46;;;;;;;1.45;1.42;;;21.70;99.90;25.20;101375.00;;;;5033544;28;20223;-62
2023/06/22 12:55:14;;;;;;;0.55;0.55;;;21.70;99.90;26.00;101388.00;;;;5033792;28;20540;-62
2023/06/22 12:57:45;;;;;;;0.50;0.50;;;22.00;99.90;26.10;101390.00;;;;5033071;28;20198;-62
2023/06/22 13:00:18;;;;;;;0.40;0.40;;;22.10;99.90;25.80;101396.00;;;;5034549;28;20223;-62
2023/06/22 13:02:49;;;;;;;2.65;2.28;;;22.20;99.90;24.40;101377.00;;;;5034251;28;20198;-62
2023/06/22 13:05:18;;;;;;;0.40;0.40;;;21.90;99.90;25.30;101377.00;;;;5034146;28;20229;-62
2023/06/22 13:07:44;;;;;;;0.88;0.88;;;21.80;99.90;24.90;101383.00;;;;5033958;28;20213;-62
2023/06/22 13:10:12;;;;;;;0.40;0.40;;;21.70;99.90;25.50;101375.00;;;;5033343;28;20182;-62
2023/06/22 13:12:46;;;;;;;1.70;0.82;;;21.80;99.90;25.70;101376.00;;;;5032966;28;20554;-62
2023/06/22 13:15:12;;;;;;;0.50;0.50;;;22.00;99.90;25.80;101382.00;;;;5025187;28;20170;-62
2023/06/22 13:17:52;;;;;;;0.65;0.65;;;22.10;99.90;25.50;101375.00;;;;5033735;28;20198;-61
2023/06/22 13:20:24;;;;;;;0.50;0.50;;;22.00;99.90;25.40;101373.00;;;;5032588;28;20174;-62
2023/06/22 13:22:53;;;;;;;1.20;1.10;;;22.10;99.90;25.30;101369.00;;;;5023993;28;20213;-62
2023/06/22 13:25:23;;;;;;;1.13;1.13;;;22.00;99.90;25.20;101368.00;;;;5032746;28;20683;-62
2023/06/22 13:27:55;;;;;;;2.60;2.40;;;21.80;99.90;25.30;101367.00;;;;5003126;28;20188;-62
2023/06/22 13:30:23;;;;;;;1.15;1.00;;;21.80;99.90;24.50;101357.00;;;;5030816;28;20270;-62
2023/06/22 13:32:51;;;;;;;0.52;0.52;;;21.60;99.90;24.20;101359.00;;;;5032009;28;20308;-64
2023/06/22 13:35:17;;;;;;;2.05;1.95;;;21.40;99.90;24.30;101356.00;;;;5013071;28;20555;-64
2023/06/22 13:37:57;;;;;;;0.50;0.50;;;21.30;99.90;25.00;101363.00;;;;5030946;28;20190;-64
2023/06/22 13:40:28;;;;;;;2.17;2.08;;;21.30;99.90;24.60;101372.00;;;;5019844;28;20193;-64
2023/06/22 13:42:55;;;;;;;0.40;0.40;;;21.40;99.90;25.00;101357.00;;;;5033616;28;20198;-64
2023/06/22 13:45:21;;;;;;;0.40;0.40;;;21.40;99.90;25.50;101368.00;;;;5032516;28;20282;-64
2023/06/22 13:47:52;;;;;;;0.40;0.40;;;21.60;99.90;25.50;101342.00;;;;5032269;28;20265;-64
2023/06/22 13:50:18;;;;;;;0.40;0.40;;;21.80;99.90;25.10;101360.00;;;;5032619;28;20188;-64
2023/06/22 13:52:50;;;;;;;1.77;1.70;;;21.60;99.90;24.70;101362.00;;;;5033198;28;20211;-64
2023/06/22 13:55:20;;;;;;;0.93;0.93;;;21.50;99.90;24.90;101362.00;;;;5033066;28;20272;-64
2023/06/22 13:57:46;;;;;;;0.77;0.77;;;21.50;99.90;24.90;101365.00;;;;5033488;28;20182;-64
2023/06/22 14:00:13;;;;;;;0.40;0.40;;;21.50;99.90;25.00;101369.00;;;;5032452;28;20183;-64
2023/06/22 14:02:44;;;;;;;2.30;2.13;;;21.50;99.90;24.90;101366.00;;;;5033138;28;20787;-65
2023/06/22 14:05:12;;;;;;;0.40;0.40;;;21.40;99.90;24.40;101363.00;;;;5031908;28;20231;-65
2023/06/22 14:07:47;;;;;;;0.40;0.40;;;21.20;99.90;24.50;101358.00;;;;5032962;28;20221;-64
2023/06/22 14:10:13;;;;;;;0.77;0.77;;;21.10;99.90;23.70;101338.00;;;;5032561;28;20274;-64
2023/06/22 14:12:41;;;;;;;1.48;1.48;;;21.00;99.90;23.90;101351.00;;;;5032841;28;20289;-64
2023/06/22 14:15:10;;;;;;;1.60;1.38;;;20.90;99.90;24.40;101364.00;;;;5033260;28;20233;-64
2023/06/22 14:17:36;;;;;;;0.40;0.40;;;21.00;99.90;24.90;101359.00;;;;5033060;28;20194;-64
2023/06/22 14:20:08;;;;;;;1.52;1.52;;;21.20;99.90;24.50;101350.00;;;;5033097;28;20277;-64
2023/06/22 14:22:36;;;;;;;0.50;0.50;;;21.20;99.90;24.10;101325.00;;;;5032462;28;20194;-64
2023/06/22 14:25:08;;;;;;;0.68;0.68;;;21.10;99.90;24.50;101352.00;;;;5032919;28;20280;-64
2023/06/22 14:27:39;;;;;;;1.65;1.45;;;21.10;99.90;24.60;101348.00;;;;5032978;28;20195;-65
2023/06/22 14:30:11;;;;;;;0.60;0.60;;;21.20;99.90;24.20;101342.00;;;;5028272;28;20187;-64
2023/06/22 14:32:39;;;;;;;1.35;1.25;;;21.00;99.90;24.20;101339.00;;;;5032768;28;20284;-64
2023/06/22 14:35:10;;;;;;;0.95;0.95;;;20.90;99.90;24.20;101341.00;;;;5033136;28;20186;-64
2023/06/22 14:37:36;;;;;;;1.92;1.77;;;20.90;99.90;24.70;101342.00;;;;5032712;28;20225;-64
2023/06/22 14:40:09;;;;;;;4.03;3.72;;;21.10;99.90;23.40;101329.00;;;;5032650;28;20214;-64
2023/06/22 14:42:37;;;;;;;4.50;2.97;;;20.80;99.90;23.70;101335.00;;;;5032929;28;20183;-64
2023/06/22 14:45:07;;;;;;;1.60;1.50;;;20.80;99.90;23.50;101323.00;;;;5032459;28;20196;-64
2023/06/22 14:47:35;;;;;;;0.93;0.93;;;20.70;99.90;24.10;101334.00;;;;5032757;28;20252;-64
2023/06/22 14:50:01;;;;;;;2.85;1.45;;;20.80;99.90;24.00;101321.00;;;;5032949;28;20201;-64
2023/06/22 14:52:29;;;;;;;1.33;1.23;;;20.80;99.90;24.60;101321.00;;;;5032618;28;20297;-64
2023/06/22 14:55:00;;;;;;;0.60;0.60;;;21.00;99.90;24.20;101324.00;;;;5032396;28;20183;-64
2023/06/22 14:57:49;;;;;;;0.50;0.50;;;21.00;99.90;24.00;101324.00;;;;5032940;28;20190;-64
2023/06/22 15:00:35;;;;;;;2.05;1.95;;;20.80;99.90;24.60;101326.00;;;;5047295;28;20297;-65
2023/06/22 15:03:18;;;;;;;1.48;1.48;;;21.00;99.90;23.80;101320.00;;;;5032258;28;20202;-64
2023/06/22 15:05:46;;;;;;;6.47;1.95;;;20.90;99.90;23.80;101304.00;;;;5015478;28;20644;-64
2023/06/22 15:08:12;;;;;;;0.77;0.77;;;20.80;99.90;24.10;101323.00;;;;5031398;28;20248;-64
2023/06/22 15:10:41;;;;;;;1.00;0.77;;;20.80;99.90;24.20;101319.00;;;;5032751;28;20183;-64
2023/06/22 15:13:27;;;;;;;2.88;2.65;;;20.80;99.90;23.70;101322.00;;;;5032337;28;20209;-64
2023/06/22 15:16:07;;;;;;;2.00;1.92;;;20.80;99.90;24.40;101317.00;;;;5010266;28;20230;-65
2023/06/22 15:18:36;;;;;;;1.50;1.40;;;21.00;99.90;24.00;101313.00;;;;5044883;28;20205;-64
2023/06/22 15:21:25;;;;;;;1.60;1.50;;;21.00;99.90;24.30;101310.00;;;;5035926;28;20190;-64
2023/06/22 15:24:05;;;;;;;11.23;6.13;;;21.00;99.90;24.40;101314.00;;;;5034985;28;20214;-64
2023/06/22 15:26:55;;;;;;;2.47;2.05;;;21.10;99.90;23.90;101317.00;;;;5036337;28;20711;-64
2023/06/22 15:29:47;;;;;;;2.75;1.85;;;21.00;99.90;23.60;101313.00;;;;5022245;28;20187;-65
2023/06/22 15:32:35;;;;;;;0.85;0.85;;;20.80;99.90;23.30;101313.00;;;;5011727;28;20230;-65
2023/06/22 15:35:04;;;;;;;5.68;3.45;;;20.80;99.90;24.00;101314.00;;;;5007602;28;20229;-65
2023/06/22 15:37:51;;;;;;;1.60;1.50;;;20.80;99.90;23.70;101308.00;;;;5028512;28;20230;-65
2023/06/22 15:40:26;;;;;;;2.95;2.67;;;20.80;99.90;23.70;101315.00;;;;5035614;28;20226;-64
2023/06/22 15:43:13;;;;;;;6.95;3.72;;;20.70;99.90;24.10;101325.00;;;;5034865;28;20194;-65
2023/06/22 15:46:02;;;;;;;1.27;1.27;;;20.90;99.90;24.90;101327.00;;;;5025499;28;20183;-64
2023/06/22 15:48:31;;;;;;;1.40;1.40;;;21.20;99.90;25.00;101298.00;;;;5035202;28;20179;-64
2023/06/22 15:51:20;;;;;;;8.77;3.90;;;21.40;99.90;25.10;101321.00;;;;5035571;28;20181;-64
2023/06/22 15:54:06;;;;;;;2.05;1.05;;;21.40;99.90;25.30;101329.00;;;;5030053;28;20234;-64
2023/06/22 15:56:55;;;;;;;0.30;0.30;;;21.70;99.90;25.40;101338.00;;;;5034213;28;20183;-64
2023/06/22 15:59:43;;;;;;;1.58;1.48;;;21.70;99.90;25.60;101345.00;;;;4994057;28;20211;-62
2023/06/22 16:02:32;;;;;;;0.68;0.68;;;21.80;99.90;25.60;101351.00;;;;5029009;28;20256;-62
2023/06/22 16:05:09;;;;;;;0.50;0.50;;;22.00;99.90;25.80;101344.00;;;;5031532;28;20182;-62
2023/06/22 16:07:59;;;;;;;1.45;1.30;;;22.00;99.90;26.00;101362.00;;;;5014624;28;20214;-62
2023/06/22 16:10:27;;;;;;;2.47;2.38;;;22.20;99.90;25.80;101366.00;;;;5019456;28;20267;-62
2023/06/22 16:13:09;;;;;;;0.50;0.50;;;22.20;99.90;26.10;101369.00;;;;5035213;28;20218;-62
2023/06/22 16:15:47;;;;;;;0.50;0.50;;;22.30;99.90;26.10;101369.00;;;;5035045;28;20285;-62
2023/06/22 16:18:36;;;;;;;1.02;1.02;;;22.30;99.90;26.20;101364.00;;;;5035618;28;20175;-62
2023/06/22 16:21:22;;;;;;;0.70;0.70;;;22.40;99.90;26.50;101376.00;;;;5035234;28;20222;-62
2023/06/22 16:24:11;;;;;;;0.40;0.40;;;22.60;99.90;25.50;101357.00;;;;5035266;28;20191;-62
2023/06/22 16:27:01;;;;;;;4.15;3.80;;;22.30;99.90;25.20;101361.00;;;;5034006;28;20299;-62
2023/06/22 16:29:50;;;;;;;0.40;0.40;;;22.20;99.90;25.20;101331.00;;;;5027008;28;20393;-61
2023/06/22 16:32:41;;;;;;;0.50;0.50;;;22.10;99.90;26.00;101361.00;;;;5034727;28;20214;-62
2023/06/22 16:35:25;;;;;;;2.45;1.65;;;22.20;99.90;25.40;101363.00;;;;5017159;28;20651;-64
2023/06/22 16:38:05;;;;;;;2.65;2.40;;;22.30;99.90;26.10;101370.00;;;;5030547;28;20183;-62
2023/06/22 16:41:04;;;;;;;4.50;3.65;;;22.40;99.90;26.10;101365.00;;;;5033569;28;20195;-62
2023/06/22 16:43:44;;;;;;;0.60;0.60;;;22.50;99.90;25.90;101359.00;;;;5023343;28;20238;-62
2023/06/22 16:46:34;;;;;;;2.22;2.13;;;22.40;99.90;25.80;101357.00;;;;5016565;28;20190;-62
2023/06/22 16:49:23;;;;;;;0.52;0.52;;;22.50;99.90;25.40;101358.00;;;;5034493;28;20187;-62
2023/06/22 16:52:12;;;;;;;2.85;2.65;;;22.30;99.90;25.90;101361.00;;;;5013627;28;20203;-62
2023/06/22 16:55:03;;;;;;;2.05;1.88;;;22.30;99.90;26.20;101373.00;;;;5024256;28;20253;-62
2023/06/22 16:58:01;;;;;;;1.20;1.13;;;22.50;99.90;25.80;101375.00;;;;5021274;28;20285;-62
2023/06/22 17:00:54;;;;;;;0.35;0.35;;;22.50;99.90;25.30;101370.00;;;;5029703;28;20198;-62
2023/06/22 17:03:48;;;;;;;0.60;0.60;;;22.20;99.90;25.80;101376.00;;;;4992500;28;20254;-62
2023/06/22 17:06:33;;;;;;;0.30;0.30;;;22.20;99.90;26.20;101390.00;;;;4976430;28;20195;-61
2023/06/22 17:09:20;;;;;;;0.85;0.85;;;22.50;99.90;25.80;101383.00;;;;5025548;28;20269;-61
2023/06/22 17:11:55;;;;;;;1.65;1.55;;;22.40;99.90;25.80;101396.00;;;;5034408;28;20206;-61
2023/06/22 17:14:35;;;;;;;0.50;0.50;;;22.30;99.90;26.10;101407.00;;;;5016931;28;20660;-62
2023/06/22 17:17:26;;;;;;;0.70;0.70;;;22.30;99.90;26.10;101408.00;;;;5021866;28;20163;-61
2023/06/22 17:20:15;;;;;;;0.40;0.40;;;22.40;99.90;26.60;101422.00;;;;5019700;28;20207;-61
2023/06/22 17:22:54;;;;;;;1.25;1.15;;;22.70;99.90;26.70;101432.00;;;;5033953;28;20657;-61
2023/06/22 17:25:46;;;;;;;0.38;0.38;;;22.80;99.90;26.30;101427.00;;;;5034176;28;20589;-61
2023/06/22 17:28:49;;;;;;;0.40;0.40;;;22.80;99.90;26.10;101422.00;;;;5025148;28;20202;-62
2023/06/22 17:31:19;;;;;;;0.30;0.30;;;22.80;99.90;26.80;101442.00;;;;5031382;28;20268;-62
2023/06/22 17:34:16;;;;;;;15.65;2.05;;;22.90;99.90;26.30;101447.00;;;;5033539;28;20207;-61
2023/06/22 17:36:52;;;;;;;0.40;0.40;;;23.00;99.90;26.40;101456.00;;;;5061400;28;20241;-62
2023/06/22 17:39:35;;;;;;;0.30;0.30;;;22.90;99.90;27.10;101464.00;;;;5032441;28;20244;-61
2023/06/22 17:42:25;;;;;;;0.30;0.30;;;23.10;99.90;27.10;101473.00;;;;5033500;28;20191;-62
2023/06/22 17:45:21;;;;;;;0.47;0.47;;;23.20;99.90;27.10;101473.00;;;;5028068;28;20185;-61
2023/06/22 17:48:14;;;;;;;0.40;0.40;;;23.20;99.90;27.50;101483.00;;;;5029886;28;20191;-63
2023/06/22 17:51:06;;;;;;;0.82;0.82;;;23.40;99.90;27.50;101465.00;;;;5046447;28;20614;-64
2023/06/22 17:53:55;;;;;;;0.40;0.40;;;23.50;99.90;27.70;101483.00;;;;5033210;28;20214;-64
2023/06/22 17:56:34;;;;;;;0.30;0.30;;;23.50;99.90;27.60;101484.00;;;;5009607;28;20670;-62
2023/06/22 17:59:23;;;;;;;0.30;0.30;;;23.50;99.90;27.70;101495.00;;;;5024396;28;20187;-62
2023/06/22 18:02:11;;;;;;;0.30;0.30;;;23.60;99.90;27.80;101498.00;;;;5017620;28;20182;-62
2023/06/22 18:05:18;;;;;;;0.40;0.40;;;23.70;99.90;27.90;101500.00;;;;5024212;28;20201;-61
2023/06/22 18:08:05;;;;;;;0.30;0.30;;;23.70;99.90;27.60;101492.00;;;;5016540;28;20194;-63
2023/06/22 18:11:01;;;;;;;0.45;0.45;;;23.70;99.90;27.10;101477.00;;;;5015924;28;20578;-63
2023/06/22 18:14:07;;;;;;;0.30;0.30;;;23.40;99.90;27.00;101484.00;;;;5052980;28;20305;-63
2023/06/22 18:16:58;;;;;;;0.30;0.30;;;23.20;99.90;27.30;101502.00;;;;5031053;28;20304;-63
2023/06/22 18:19:50;;;;;;;0.40;0.40;;;23.30;99.90;26.90;101504.00;;;;5022214;28;20182;-63
2023/06/22 18:22:41;;;;;;;1.88;1.58;;;23.30;99.90;27.10;101504.00;;;;5032588;28;20197;-63
2023/06/22 18:25:45;;;;;;;0.85;0.85;;;23.20;99.90;27.20;101511.00;;;;4991510;28;20212;-62
2023/06/22 18:28:17;;;;;;;0.30;0.30;;;23.30;99.90;27.50;101514.00;;;;4972417;28;20191;-61